sensor_id;sensor_type;location;lat;lon;timestamp;temperature;humidity
4964;DHT22;2497;47.410;9.740;2023-01-30T00:01:42;-3.30;99.90
4964;DHT22;2497;47.410;9.740;2023-01-30T00:04:10;-3.20;99.90
4964;DHT22;2497;47.410;9.740;2023-01-30T00:06:38;-3.10;99.90
4964;DHT22;2497;47.410;9.740;2023-01-30T00:09:05;-3.20;99.90
4964;DHT22;2497;47.410;9.740;2023-01-30T00:11:32;-3.30;99.90
4964;DHT22;2497;47.410;9.740;2023-01-30T00:14:00;-3.30;99.90
4964;DHT22;2497;47.410;9.740;2023-01-30T00:16:28;-3.30;99.90
4964;DHT22;2497;47.410;9.740;2023-01-30T00:18:56;-3.20;99.90
4964;DHT22;2497;47.410;9.740;2023-01-30T00:21:23;-3.20;99.90
4964;DHT22;2497;47.410;9.740;2023-01-30T00:23:50;-3.10;99.90
4964;DHT22;2497;47.410;9.740;2023-01-30T00:26:17;-3.10;99.90
4964;DHT22;2497;47.410;9.740;2023-01-30T00:28:44;-3.20;99.90
4964;DHT22;2497;47.410;9.740;2023-01-30T00:31:11;-3.30;99.90
4964;DHT22;2497;47.410;9.740;2023-01-30T00:33:40;-3.30;99.90
4964;DHT22;2497;47.410;9.740;2023-01-30T00:36:09;-3.30;99.90
4964;DHT22;2497;47.410;9.740;2023-01-30T00:38:36;-3.40;99.90
4964;DHT22;2497;47.410;9.740;2023-01-30T00:41:04;-3.40;99.90
4964;DHT22;2497;47.410;9.740;2023-01-30T00:43:31;-3.40;99.90
4964;DHT22;2497;47.410;9.740;2023-01-30T00:46:21;-3.40;99.90
4964;DHT22;2497;47.410;9.740;2023-01-30T00:49:09;-3.30;99.90
4964;DHT22;2497;47.410;9.740;2023-01-30T00:51:36;-3.30;99.90
4964;DHT22;2497;47.410;9.740;2023-01-30T00:54:03;-3.30;99.90
4964;DHT22;2497;47.410;9.740;2023-01-30T00:56:31;-3.20;99.90
4964;DHT22;2497;47.410;9.740;2023-01-30T00:59:02;-3.10;99.90
4964;DHT22;2497;47.410;9.740;2023-01-30T01:01:29;-3.00;99.90
4964;DHT22;2497;47.410;9.740;2023-01-30T01:03:56;-2.90;99.90
4964;DHT22;2497;47.410;9.740;2023-01-30T01:06:25;-2.80;99.90
4964;DHT22;2497;47.410;9.740;2023-01-30T01:08:52;-2.70;99.90
4964;DHT22;2497;47.410;9.740;2023-01-30T01:11:19;-2.70;99.90
4964;DHT22;2497;47.410;9.740;2023-01-30T01:13:54;-2.70;99.90
4964;DHT22;2497;47.410;9.740;2023-01-30T01:16:22;-2.60;99.90
4964;DHT22;2497;47.410;9.740;2023-01-30T01:18:52;-2.60;99.90
4964;DHT22;2497;47.410;9.740;2023-01-30T01:21:27;-2.50;99.90
4964;DHT22;2497;47.410;9.740;2023-01-30T01:23:56;-2.50;99.90
4964;DHT22;2497;47.410;9.740;2023-01-30T01:26:27;-2.50;99.90
4964;DHT22;2497;47.410;9.740;2023-01-30T01:28:55;-2.50;99.90
4964;DHT22;2497;47.410;9.740;2023-01-30T01:31:25;-2.50;99.90
4964;DHT22;2497;47.410;9.740;2023-01-30T01:33:52;-2.50;99.90
4964;DHT22;2497;47.410;9.740;2023-01-30T01:36:23;-2.50;99.90
4964;DHT22;2497;47.410;9.740;2023-01-30T01:38:51;-2.50;99.90
4964;DHT22;2497;47.410;9.740;2023-01-30T01:41:18;-2.50;99.90
4964;DHT22;2497;47.410;9.740;2023-01-30T01:44:03;-2.50;99.90
4964;DHT22;2497;47.410;9.740;2023-01-30T01:46:34;-2.50;99.90
4964;DHT22;2497;47.410;9.740;2023-01-30T01:49:06;-2.50;99.90
4964;DHT22;2497;47.410;9.740;2023-01-30T01:51:37;-2.50;99.90
4964;DHT22;2497;47.410;9.740;2023-01-30T01:54:10;-2.50;99.90
4964;DHT22;2497;47.410;9.740;2023-01-30T01:56:42;-2.50;99.90
4964;DHT22;2497;47.410;9.740;2023-01-30T01:59:15;-2.40;99.90
4964;DHT22;2497;47.410;9.740;2023-01-30T02:01:53;-2.40;99.90
4964;DHT22;2497;47.410;9.740;2023-01-30T02:04:23;-2.40;99.90
4964;DHT22;2497;47.410;9.740;2023-01-30T02:07:05;-2.60;99.90
4964;DHT22;2497;47.410;9.740;2023-01-30T02:12:07;-2.80;99.90
4964;DHT22;2497;47.410;9.740;2023-01-30T02:14:39;-2.90;99.90
4964;DHT22;2497;47.410;9.740;2023-01-30T02:17:07;-2.90;99.90
4964;DHT22;2497;47.410;9.740;2023-01-30T02:19:46;-2.90;99.90
4964;DHT22;2497;47.410;9.740;2023-01-30T02:22:35;-3.00;99.90
4964;DHT22;2497;47.410;9.740;2023-01-30T02:25:40;-3.00;99.90
4964;DHT22;2497;47.410;9.740;2023-01-30T02:42:44;-3.20;99.90
4964;DHT22;2497;47.410;9.740;2023-01-30T04:04:37;-3.30;99.90
4964;DHT22;2497;47.410;9.740;2023-01-30T04:07:14;-3.40;99.90
4964;DHT22;2497;47.410;9.740;2023-01-30T04:15:18;-3.40;99.90
4964;DHT22;2497;47.410;9.740;2023-01-30T04:17:45;-3.40;99.90
4964;DHT22;2497;47.410;9.740;2023-01-30T04:20:17;-3.30;99.90
4964;DHT22;2497;47.410;9.740;2023-01-30T04:22:47;-3.30;99.90
4964;DHT22;2497;47.410;9.740;2023-01-30T04:33:24;-2.80;99.90
4964;DHT22;2497;47.410;9.740;2023-01-30T04:35:56;-2.70;99.90
4964;DHT22;2497;47.410;9.740;2023-01-30T04:43:37;-2.40;99.90
4964;DHT22;2497;47.410;9.740;2023-01-30T04:57:00;-2.30;99.90
4964;DHT22;2497;47.410;9.740;2023-01-30T04:59:38;-2.20;99.90
4964;DHT22;2497;47.410;9.740;2023-01-30T05:04:43;-2.10;99.90
4964;DHT22;2497;47.410;9.740;2023-01-30T05:09:49;-2.10;99.90
4964;DHT22;2497;47.410;9.740;2023-01-30T05:12:19;-2.00;99.90
4964;DHT22;2497;47.410;9.740;2023-01-30T05:14:47;-2.00;99.90
4964;DHT22;2497;47.410;9.740;2023-01-30T05:17:14;-1.90;99.90
4964;DHT22;2497;47.410;9.740;2023-01-30T05:19:42;-2.00;99.90
4964;DHT22;2497;47.410;9.740;2023-01-30T05:22:09;-2.00;99.90
4964;DHT22;2497;47.410;9.740;2023-01-30T05:36:24;-2.20;99.90
4964;DHT22;2497;47.410;9.740;2023-01-30T05:38:54;-2.40;99.90
4964;DHT22;2497;47.410;9.740;2023-01-30T05:41:22;-2.50;99.90
4964;DHT22;2497;47.410;9.740;2023-01-30T05:43:51;-2.50;99.90
4964;DHT22;2497;47.410;9.740;2023-01-30T05:46:52;-2.60;99.90
4964;DHT22;2497;47.410;9.740;2023-01-30T05:49:22;-2.70;99.90
4964;DHT22;2497;47.410;9.740;2023-01-30T05:51:49;-2.80;99.90
4964;DHT22;2497;47.410;9.740;2023-01-30T05:54:29;-2.80;99.90
4964;DHT22;2497;47.410;9.740;2023-01-30T05:57:07;-2.80;99.90
4964;DHT22;2497;47.410;9.740;2023-01-30T05:59:38;-3.00;99.90
4964;DHT22;2497;47.410;9.740;2023-01-30T06:02:08;-3.10;99.90
4964;DHT22;2497;47.410;9.740;2023-01-30T06:04:38;-3.20;99.90
4964;DHT22;2497;47.410;9.740;2023-01-30T06:07:13;-3.30;99.90
4964;DHT22;2497;47.410;9.740;2023-01-30T06:09:40;-3.40;99.90
4964;DHT22;2497;47.410;9.740;2023-01-30T06:12:08;-3.20;99.90
4964;DHT22;2497;47.410;9.740;2023-01-30T06:14:38;-3.20;99.90
4964;DHT22;2497;47.410;9.740;2023-01-30T06:17:23;-3.10;99.90
4964;DHT22;2497;47.410;9.740;2023-01-30T06:19:51;-3.00;99.90
4964;DHT22;2497;47.410;9.740;2023-01-30T06:22:18;-3.20;99.90
4964;DHT22;2497;47.410;9.740;2023-01-30T06:24:45;-3.40;99.90
4964;DHT22;2497;47.410;9.740;2023-01-30T06:27:13;-3.30;99.90
4964;DHT22;2497;47.410;9.740;2023-01-30T06:29:41;-3.30;99.90
4964;DHT22;2497;47.410;9.740;2023-01-30T06:32:08;-3.30;99.90
4964;DHT22;2497;47.410;9.740;2023-01-30T06:34:40;-3.50;99.90
4964;DHT22;2497;47.410;9.740;2023-01-30T06:37:08;-3.60;99.90
4964;DHT22;2497;47.410;9.740;2023-01-30T06:39:37;-3.50;99.90
4964;DHT22;2497;47.410;9.740;2023-01-30T06:42:04;-3.60;99.90
4964;DHT22;2497;47.410;9.740;2023-01-30T06:44:32;-3.60;99.90
4964;DHT22;2497;47.410;9.740;2023-01-30T06:47:00;-3.70;99.90
4964;DHT22;2497;47.410;9.740;2023-01-30T06:49:36;-3.70;99.90
4964;DHT22;2497;47.410;9.740;2023-01-30T06:52:10;-3.70;99.90
4964;DHT22;2497;47.410;9.740;2023-01-30T06:54:42;-3.70;99.90
4964;DHT22;2497;47.410;9.740;2023-01-30T06:57:12;-3.70;99.90
4964;DHT22;2497;47.410;9.740;2023-01-30T06:59:40;-3.70;99.90
4964;DHT22;2497;47.410;9.740;2023-01-30T07:02:14;-3.60;99.90
4964;DHT22;2497;47.410;9.740;2023-01-30T07:04:42;-3.50;99.90
4964;DHT22;2497;47.410;9.740;2023-01-30T07:07:20;-3.40;99.90
4964;DHT22;2497;47.410;9.740;2023-01-30T07:09:48;-3.40;99.90
4964;DHT22;2497;47.410;9.740;2023-01-30T07:12:18;-3.50;99.90
4964;DHT22;2497;47.410;9.740;2023-01-30T07:14:54;-3.40;99.90
4964;DHT22;2497;47.410;9.740;2023-01-30T07:17:25;-3.50;99.90
4964;DHT22;2497;47.410;9.740;2023-01-30T07:19:56;-3.60;99.90
4964;DHT22;2497;47.410;9.740;2023-01-30T07:22:35;-3.60;99.90
4964;DHT22;2497;47.410;9.740;2023-01-30T07:25:14;-3.60;99.90
4964;DHT22;2497;47.410;9.740;2023-01-30T07:28:10;-3.50;99.90
4964;DHT22;2497;47.410;9.740;2023-01-30T07:31:05;-3.50;99.90
4964;DHT22;2497;47.410;9.740;2023-01-30T07:33:48;-3.50;99.90
4964;DHT22;2497;47.410;9.740;2023-01-30T07:36:40;-3.40;99.90
4964;DHT22;2497;47.410;9.740;2023-01-30T07:39:28;-3.30;99.90
4964;DHT22;2497;47.410;9.740;2023-01-30T07:42:08;-3.30;99.90
4964;DHT22;2497;47.410;9.740;2023-01-30T07:48:17;-3.10;99.90
4964;DHT22;2497;47.410;9.740;2023-01-30T07:51:10;-3.10;99.90
4964;DHT22;2497;47.410;9.740;2023-01-30T08:01:08;-2.80;99.90
4964;DHT22;2497;47.410;9.740;2023-01-30T08:06:58;-2.70;99.90
4964;DHT22;2497;47.410;9.740;2023-01-30T08:10:00;-2.50;99.90
4964;DHT22;2497;47.410;9.740;2023-01-30T08:12:38;-2.40;99.90
4964;DHT22;2497;47.410;9.740;2023-01-30T08:15:07;-2.10;99.90
4964;DHT22;2497;47.410;9.740;2023-01-30T08:17:52;-1.90;99.90
4964;DHT22;2497;47.410;9.740;2023-01-30T08:20:38;-1.80;99.90
4964;DHT22;2497;47.410;9.740;2023-01-30T08:23:08;-1.70;99.90
4964;DHT22;2497;47.410;9.740;2023-01-30T08:37:32;-1.60;99.90
4964;DHT22;2497;47.410;9.740;2023-01-30T09:19:30;0.20;99.90
4964;DHT22;2497;47.410;9.740;2023-01-30T09:22:05;0.40;99.90
4964;DHT22;2497;47.410;9.740;2023-01-30T09:24:37;0.50;99.90
4964;DHT22;2497;47.410;9.740;2023-01-30T09:27:10;0.40;99.90
4964;DHT22;2497;47.410;9.740;2023-01-30T09:29:37;0.50;99.90
4964;DHT22;2497;47.410;9.740;2023-01-30T09:32:07;0.50;99.90
4964;DHT22;2497;47.410;9.740;2023-01-30T09:34:36;0.60;99.90
4964;DHT22;2497;47.410;9.740;2023-01-30T09:37:04;0.70;99.90
4964;DHT22;2497;47.410;9.740;2023-01-30T09:39:31;0.70;99.90
4964;DHT22;2497;47.410;9.740;2023-01-30T09:42:17;0.70;99.90
4964;DHT22;2497;47.410;9.740;2023-01-30T09:45:11;0.70;99.90
4964;DHT22;2497;47.410;9.740;2023-01-30T09:47:46;0.70;99.90
4964;DHT22;2497;47.410;9.740;2023-01-30T09:50:31;1.00;99.90
4964;DHT22;2497;47.410;9.740;2023-01-30T09:53:08;1.20;99.90
4964;DHT22;2497;47.410;9.740;2023-01-30T09:55:39;1.40;99.90
4964;DHT22;2497;47.410;9.740;2023-01-30T09:58:17;1.50;99.90
4964;DHT22;2497;47.410;9.740;2023-01-30T10:00:47;1.60;99.90
4964;DHT22;2497;47.410;9.740;2023-01-30T10:03:19;1.80;99.90
4964;DHT22;2497;47.410;9.740;2023-01-30T10:05:52;1.90;99.90
4964;DHT22;2497;47.410;9.740;2023-01-30T10:08:43;1.70;99.90
4964;DHT22;2497;47.410;9.740;2023-01-30T10:11:22;1.60;99.90
4964;DHT22;2497;47.410;9.740;2023-01-30T10:14:06;1.50;99.90
4964;DHT22;2497;47.410;9.740;2023-01-30T10:16:42;1.50;99.90
4964;DHT22;2497;47.410;9.740;2023-01-30T10:19:31;1.60;99.90
4964;DHT22;2497;47.410;9.740;2023-01-30T10:22:15;1.40;99.90
4964;DHT22;2497;47.410;9.740;2023-01-30T10:24:52;1.50;99.90
4964;DHT22;2497;47.410;9.740;2023-01-30T10:27:24;1.40;99.90
4964;DHT22;2497;47.410;9.740;2023-01-30T10:29:58;1.60;99.90
4964;DHT22;2497;47.410;9.740;2023-01-30T10:32:28;1.30;99.90
4964;DHT22;2497;47.410;9.740;2023-01-30T10:35:02;1.50;99.90
4964;DHT22;2497;47.410;9.740;2023-01-30T10:37:40;1.50;99.90
4964;DHT22;2497;47.410;9.740;2023-01-30T10:40:13;1.60;99.90
4964;DHT22;2497;47.410;9.740;2023-01-30T10:42:48;2.00;99.90
4964;DHT22;2497;47.410;9.740;2023-01-30T10:45:23;2.00;99.90
4964;DHT22;2497;47.410;9.740;2023-01-30T10:48:03;2.10;99.90
4964;DHT22;2497;47.410;9.740;2023-01-30T10:50:45;2.20;99.90
4964;DHT22;2497;47.410;9.740;2023-01-30T10:53:18;2.10;99.90
4964;DHT22;2497;47.410;9.740;2023-01-30T10:55:50;2.20;99.90
4964;DHT22;2497;47.410;9.740;2023-01-30T10:58:24;2.40;99.90
4964;DHT22;2497;47.410;9.740;2023-01-30T11:00:57;2.40;99.90
4964;DHT22;2497;47.410;9.740;2023-01-30T11:03:32;2.60;99.90
4964;DHT22;2497;47.410;9.740;2023-01-30T11:06:06;2.60;99.90
4964;DHT22;2497;47.410;9.740;2023-01-30T11:08:38;2.50;99.90
4964;DHT22;2497;47.410;9.740;2023-01-30T11:11:26;2.60;99.90
4964;DHT22;2497;47.410;9.740;2023-01-30T11:14:01;2.60;99.90
4964;DHT22;2497;47.410;9.740;2023-01-30T11:16:33;2.40;99.90
4964;DHT22;2497;47.410;9.740;2023-01-30T11:19:08;2.40;99.90
4964;DHT22;2497;47.410;9.740;2023-01-30T11:21:36;2.40;99.90
4964;DHT22;2497;47.410;9.740;2023-01-30T11:24:14;2.50;99.90
4964;DHT22;2497;47.410;9.740;2023-01-30T11:26:44;2.60;99.90
4964;DHT22;2497;47.410;9.740;2023-01-30T11:29:27;2.60;99.90
4964;DHT22;2497;47.410;9.740;2023-01-30T11:32:00;2.70;99.90
4964;DHT22;2497;47.410;9.740;2023-01-30T11:34:29;2.80;99.90
4964;DHT22;2497;47.410;9.740;2023-01-30T11:37:14;2.80;99.90
4964;DHT22;2497;47.410;9.740;2023-01-30T11:39:50;3.00;99.90
4964;DHT22;2497;47.410;9.740;2023-01-30T11:42:21;3.40;99.90
4964;DHT22;2497;47.410;9.740;2023-01-30T11:44:54;3.60;99.90
4964;DHT22;2497;47.410;9.740;2023-01-30T11:47:25;4.00;99.90
4964;DHT22;2497;47.410;9.740;2023-01-30T11:49:55;4.00;99.90
4964;DHT22;2497;47.410;9.740;2023-01-30T11:52:30;4.20;99.90
4964;DHT22;2497;47.410;9.740;2023-01-30T11:55:01;4.40;99.90
4964;DHT22;2497;47.410;9.740;2023-01-30T11:57:38;4.80;99.90
4964;DHT22;2497;47.410;9.740;2023-01-30T12:00:15;4.90;99.90
4964;DHT22;2497;47.410;9.740;2023-01-30T12:02:44;5.10;99.90
4964;DHT22;2497;47.410;9.740;2023-01-30T12:05:23;5.00;99.90
4964;DHT22;2497;47.410;9.740;2023-01-30T12:07:51;5.00;99.90
4964;DHT22;2497;47.410;9.740;2023-01-30T12:10:28;4.80;99.90
4964;DHT22;2497;47.410;9.740;2023-01-30T12:12:58;4.80;99.90
4964;DHT22;2497;47.410;9.740;2023-01-30T12:15:28;4.70;99.90
4964;DHT22;2497;47.410;9.740;2023-01-30T12:18:00;4.60;99.90
4964;DHT22;2497;47.410;9.740;2023-01-30T12:20:40;6.00;99.90
4964;DHT22;2497;47.410;9.740;2023-01-30T12:23:14;6.70;99.90
4964;DHT22;2497;47.410;9.740;2023-01-30T12:25:51;6.90;99.90
4964;DHT22;2497;47.410;9.740;2023-01-30T12:28:26;7.60;99.90
4964;DHT22;2497;47.410;9.740;2023-01-30T12:31:01;8.90;99.90
4964;DHT22;2497;47.410;9.740;2023-01-30T12:33:32;10.50;99.90
4964;DHT22;2497;47.410;9.740;2023-01-30T12:36:08;10.80;99.90
4964;DHT22;2497;47.410;9.740;2023-01-30T12:38:50;10.50;99.90
4964;DHT22;2497;47.410;9.740;2023-01-30T12:41:30;10.90;99.90
4964;DHT22;2497;47.410;9.740;2023-01-30T12:44:26;10.90;99.90
4964;DHT22;2497;47.410;9.740;2023-01-30T12:47:22;11.20;99.90
4964;DHT22;2497;47.410;9.740;2023-01-30T12:50:10;9.80;99.90
4964;DHT22;2497;47.410;9.740;2023-01-30T12:52:49;9.20;99.90
4964;DHT22;2497;47.410;9.740;2023-01-30T12:55:23;8.00;99.90
4964;DHT22;2497;47.410;9.740;2023-01-30T12:57:58;7.40;99.90
4964;DHT22;2497;47.410;9.740;2023-01-30T13:00:39;7.20;99.90
4964;DHT22;2497;47.410;9.740;2023-01-30T13:03:22;6.70;99.90
4964;DHT22;2497;47.410;9.740;2023-01-30T13:05:59;6.60;99.90
4964;DHT22;2497;47.410;9.740;2023-01-30T13:08:46;6.80;99.90
4964;DHT22;2497;47.410;9.740;2023-01-30T13:11:35;6.70;99.90
4964;DHT22;2497;47.410;9.740;2023-01-30T13:14:09;6.40;99.90
4964;DHT22;2497;47.410;9.740;2023-01-30T13:16:52;6.30;99.90
4964;DHT22;2497;47.410;9.740;2023-01-30T13:19:29;6.10;99.90
4964;DHT22;2497;47.410;9.740;2023-01-30T13:22:04;6.10;99.90
4964;DHT22;2497;47.410;9.740;2023-01-30T13:24:42;6.00;99.90
4964;DHT22;2497;47.410;9.740;2023-01-30T13:27:14;6.00;99.90
4964;DHT22;2497;47.410;9.740;2023-01-30T13:29:45;5.80;99.90
4964;DHT22;2497;47.410;9.740;2023-01-30T13:32:26;5.70;99.90
4964;DHT22;2497;47.410;9.740;2023-01-30T13:34:57;5.80;99.90
4964;DHT22;2497;47.410;9.740;2023-01-30T13:37:25;5.80;99.90
4964;DHT22;2497;47.410;9.740;2023-01-30T13:39:55;5.70;99.90
4964;DHT22;2497;47.410;9.740;2023-01-30T13:42:28;5.60;99.90
4964;DHT22;2497;47.410;9.740;2023-01-30T13:44:58;5.60;99.90
4964;DHT22;2497;47.410;9.740;2023-01-30T13:47:38;5.50;99.90
4964;DHT22;2497;47.410;9.740;2023-01-30T13:50:26;5.50;99.90
4964;DHT22;2497;47.410;9.740;2023-01-30T13:53:00;5.50;99.90
4964;DHT22;2497;47.410;9.740;2023-01-30T13:55:39;5.50;99.90
4964;DHT22;2497;47.410;9.740;2023-01-30T13:58:16;5.60;99.90
4964;DHT22;2497;47.410;9.740;2023-01-30T14:00:55;5.60;99.90
4964;DHT22;2497;47.410;9.740;2023-01-30T14:03:25;5.60;99.90
4964;DHT22;2497;47.410;9.740;2023-01-30T14:06:08;5.60;99.90
4964;DHT22;2497;47.410;9.740;2023-01-30T14:08:39;5.70;99.90
4964;DHT22;2497;47.410;9.740;2023-01-30T14:11:32;5.60;99.90
4964;DHT22;2497;47.410;9.740;2023-01-30T14:14:03;5.60;99.90
4964;DHT22;2497;47.410;9.740;2023-01-30T14:16:45;5.60;99.90
4964;DHT22;2497;47.410;9.740;2023-01-30T14:19:27;5.50;99.90
4964;DHT22;2497;47.410;9.740;2023-01-30T14:21:57;5.50;99.90
4964;DHT22;2497;47.410;9.740;2023-01-30T14:24:26;5.50;99.90
4964;DHT22;2497;47.410;9.740;2023-01-30T14:27:01;5.50;99.90
4964;DHT22;2497;47.410;9.740;2023-01-30T14:29:52;5.60;99.90
4964;DHT22;2497;47.410;9.740;2023-01-30T14:32:51;5.50;99.90
4964;DHT22;2497;47.410;9.740;2023-01-30T14:35:24;5.40;99.90
4964;DHT22;2497;47.410;9.740;2023-01-30T14:38:09;5.40;99.90
4964;DHT22;2497;47.410;9.740;2023-01-30T14:40:42;5.40;99.90
4964;DHT22;2497;47.410;9.740;2023-01-30T14:43:49;5.30;99.90
4964;DHT22;2497;47.410;9.740;2023-01-30T14:46:39;5.30;99.90
4964;DHT22;2497;47.410;9.740;2023-01-30T14:49:20;5.60;99.90
4964;DHT22;2497;47.410;9.740;2023-01-30T14:51:49;5.40;99.90
4964;DHT22;2497;47.410;9.740;2023-01-30T14:54:22;5.40;99.90
4964;DHT22;2497;47.410;9.740;2023-01-30T14:56:53;5.30;99.90
4964;DHT22;2497;47.410;9.740;2023-01-30T14:59:25;5.20;99.90
4964;DHT22;2497;47.410;9.740;2023-01-30T15:01:59;5.10;99.90
4964;DHT22;2497;47.410;9.740;2023-01-30T15:04:30;5.10;99.90
4964;DHT22;2497;47.410;9.740;2023-01-30T15:07:00;5.00;99.90
4964;DHT22;2497;47.410;9.740;2023-01-30T15:09:30;4.90;99.90
4964;DHT22;2497;47.410;9.740;2023-01-30T15:12:12;4.90;99.90
4964;DHT22;2497;47.410;9.740;2023-01-30T15:14:51;4.80;99.90
4964;DHT22;2497;47.410;9.740;2023-01-30T15:17:27;4.70;99.90
4964;DHT22;2497;47.410;9.740;2023-01-30T15:20:19;4.70;99.90
4964;DHT22;2497;47.410;9.740;2023-01-30T15:23:06;4.70;99.90
4964;DHT22;2497;47.410;9.740;2023-01-30T15:25:48;4.70;99.90
4964;DHT22;2497;47.410;9.740;2023-01-30T15:28:31;4.70;99.90
4964;DHT22;2497;47.410;9.740;2023-01-30T15:31:08;4.60;99.90
4964;DHT22;2497;47.410;9.740;2023-01-30T15:33:45;4.70;99.90
4964;DHT22;2497;47.410;9.740;2023-01-30T15:36:24;4.90;99.90
4964;DHT22;2497;47.410;9.740;2023-01-30T15:39:02;4.70;99.90
4964;DHT22;2497;47.410;9.740;2023-01-30T15:41:31;4.70;99.90
4964;DHT22;2497;47.410;9.740;2023-01-30T15:44:23;4.60;99.90
4964;DHT22;2497;47.410;9.740;2023-01-30T15:47:05;4.60;99.90
4964;DHT22;2497;47.410;9.740;2023-01-30T15:49:54;4.60;99.90
4964;DHT22;2497;47.410;9.740;2023-01-30T15:52:31;4.50;99.90
4964;DHT22;2497;47.410;9.740;2023-01-30T15:55:15;4.40;99.90
4964;DHT22;2497;47.410;9.740;2023-01-30T15:57:48;4.30;99.90
4964;DHT22;2497;47.410;9.740;2023-01-30T16:00:23;4.20;99.90
4964;DHT22;2497;47.410;9.740;2023-01-30T16:02:51;4.20;99.90
4964;DHT22;2497;47.410;9.740;2023-01-30T16:05:22;4.30;99.90
4964;DHT22;2497;47.410;9.740;2023-01-30T16:07:53;4.20;99.90
4964;DHT22;2497;47.410;9.740;2023-01-30T16:10:23;4.10;99.90
4964;DHT22;2497;47.410;9.740;2023-01-30T16:12:53;4.00;99.90
4964;DHT22;2497;47.410;9.740;2023-01-30T16:15:25;3.90;99.90
4964;DHT22;2497;47.410;9.740;2023-01-30T16:18:01;3.80;99.90
4964;DHT22;2497;47.410;9.740;2023-01-30T16:20:31;3.80;99.90
4964;DHT22;2497;47.410;9.740;2023-01-30T16:23:02;3.80;99.90
4964;DHT22;2497;47.410;9.740;2023-01-30T16:25:30;3.80;99.90
4964;DHT22;2497;47.410;9.740;2023-01-30T16:27:59;3.70;99.90
4964;DHT22;2497;47.410;9.740;2023-01-30T16:30:28;3.70;99.90
4964;DHT22;2497;47.410;9.740;2023-01-30T16:32:56;3.70;99.90
4964;DHT22;2497;47.410;9.740;2023-01-30T16:35:29;3.80;99.90
4964;DHT22;2497;47.410;9.740;2023-01-30T16:37:58;3.70;99.90
4964;DHT22;2497;47.410;9.740;2023-01-30T16:40:28;3.60;99.90
4964;DHT22;2497;47.410;9.740;2023-01-30T16:42:58;3.50;99.90
4964;DHT22;2497;47.410;9.740;2023-01-30T16:48:33;3.40;99.90
4964;DHT22;2497;47.410;9.740;2023-01-30T16:51:21;3.40;99.90
4964;DHT22;2497;47.410;9.740;2023-01-30T16:53:55;3.30;99.90
4964;DHT22;2497;47.410;9.740;2023-01-30T16:56:26;3.20;99.90
4964;DHT22;2497;47.410;9.740;2023-01-30T16:58:56;3.20;99.90
4964;DHT22;2497;47.410;9.740;2023-01-30T17:01:35;3.10;99.90
4964;DHT22;2497;47.410;9.740;2023-01-30T17:04:06;3.00;99.90
4964;DHT22;2497;47.410;9.740;2023-01-30T17:06:36;3.00;99.90
4964;DHT22;2497;47.410;9.740;2023-01-30T17:09:29;3.10;99.90
4964;DHT22;2497;47.410;9.740;2023-01-30T17:11:59;3.00;99.90
4964;DHT22;2497;47.410;9.740;2023-01-30T17:14:28;2.90;99.90
4964;DHT22;2497;47.410;9.740;2023-01-30T17:17:00;2.90;99.90
4964;DHT22;2497;47.410;9.740;2023-01-30T17:19:28;2.90;99.90
4964;DHT22;2497;47.410;9.740;2023-01-30T17:21:59;2.90;99.90
4964;DHT22;2497;47.410;9.740;2023-01-30T17:24:28;2.90;99.90
4964;DHT22;2497;47.410;9.740;2023-01-30T17:27:01;2.80;99.90
4964;DHT22;2497;47.410;9.740;2023-01-30T17:29:30;2.80;99.90
4964;DHT22;2497;47.410;9.740;2023-01-30T17:31:58;2.70;99.90
4964;DHT22;2497;47.410;9.740;2023-01-30T17:34:25;2.70;99.90
4964;DHT22;2497;47.410;9.740;2023-01-30T17:36:53;2.70;99.90
4964;DHT22;2497;47.410;9.740;2023-01-30T17:39:22;2.70;99.90
4964;DHT22;2497;47.410;9.740;2023-01-30T17:41:53;2.70;99.90
4964;DHT22;2497;47.410;9.740;2023-01-30T17:44:23;2.80;99.90
4964;DHT22;2497;47.410;9.740;2023-01-30T17:46:51;3.00;99.90
4964;DHT22;2497;47.410;9.740;2023-01-30T17:49:20;3.00;99.90
4964;DHT22;2497;47.410;9.740;2023-01-30T17:51:51;3.00;99.90
4964;DHT22;2497;47.410;9.740;2023-01-30T17:54:21;2.80;99.90
4964;DHT22;2497;47.410;9.740;2023-01-30T17:56:52;2.80;99.90
4964;DHT22;2497;47.410;9.740;2023-01-30T17:59:22;2.70;99.90
4964;DHT22;2497;47.410;9.740;2023-01-30T18:01:51;2.70;99.90
4964;DHT22;2497;47.410;9.740;2023-01-30T18:04:21;2.60;99.90
4964;DHT22;2497;47.410;9.740;2023-01-30T18:06:52;2.70;99.90
4964;DHT22;2497;47.410;9.740;2023-01-30T18:09:21;2.60;99.90
4964;DHT22;2497;47.410;9.740;2023-01-30T18:11:51;2.60;99.90
4964;DHT22;2497;47.410;9.740;2023-01-30T18:14:19;2.50;99.90
4964;DHT22;2497;47.410;9.740;2023-01-30T18:16:49;2.50;99.90
4964;DHT22;2497;47.410;9.740;2023-01-30T18:19:17;2.50;99.90
4964;DHT22;2497;47.410;9.740;2023-01-30T18:21:49;2.50;99.90
4964;DHT22;2497;47.410;9.740;2023-01-30T18:24:16;2.50;99.90
4964;DHT22;2497;47.410;9.740;2023-01-30T18:26:45;2.40;99.90
4964;DHT22;2497;47.410;9.740;2023-01-30T18:29:13;2.40;99.90
4964;DHT22;2497;47.410;9.740;2023-01-30T18:31:41;2.40;99.90
4964;DHT22;2497;47.410;9.740;2023-01-30T18:34:15;2.40;99.90
4964;DHT22;2497;47.410;9.740;2023-01-30T18:36:43;2.40;99.90
4964;DHT22;2497;47.410;9.740;2023-01-30T18:39:44;2.30;99.90
4964;DHT22;2497;47.410;9.740;2023-01-30T18:42:13;2.30;99.90
4964;DHT22;2497;47.410;9.740;2023-01-30T18:44:41;2.30;99.90
4964;DHT22;2497;47.410;9.740;2023-01-30T18:47:44;2.30;99.90
4964;DHT22;2497;47.410;9.740;2023-01-30T18:50:16;2.30;99.90
4964;DHT22;2497;47.410;9.740;2023-01-30T18:52:45;2.30;99.90
4964;DHT22;2497;47.410;9.740;2023-01-30T18:55:15;2.30;99.90
4964;DHT22;2497;47.410;9.740;2023-01-30T18:57:45;2.30;99.90
4964;DHT22;2497;47.410;9.740;2023-01-30T19:00:21;2.30;99.90
4964;DHT22;2497;47.410;9.740;2023-01-30T19:02:50;2.30;99.90
4964;DHT22;2497;47.410;9.740;2023-01-30T19:05:19;2.30;99.90
4964;DHT22;2497;47.410;9.740;2023-01-30T19:07:48;2.30;99.90
4964;DHT22;2497;47.410;9.740;2023-01-30T19:10:17;2.30;99.90
4964;DHT22;2497;47.410;9.740;2023-01-30T19:12:45;2.30;99.90
4964;DHT22;2497;47.410;9.740;2023-01-30T19:15:29;2.30;99.90
4964;DHT22;2497;47.410;9.740;2023-01-30T19:17:57;2.30;99.90
4964;DHT22;2497;47.410;9.740;2023-01-30T19:20:26;2.30;99.90
4964;DHT22;2497;47.410;9.740;2023-01-30T19:22:55;2.30;99.90
4964;DHT22;2497;47.410;9.740;2023-01-30T19:25:23;2.30;99.90
4964;DHT22;2497;47.410;9.740;2023-01-30T19:27:51;2.30;99.90
4964;DHT22;2497;47.410;9.740;2023-01-30T19:30:31;2.30;99.90
4964;DHT22;2497;47.410;9.740;2023-01-30T19:32:59;2.20;99.90
4964;DHT22;2497;47.410;9.740;2023-01-30T19:35:34;2.20;99.90
4964;DHT22;2497;47.410;9.740;2023-01-30T19:38:05;2.20;99.90
4964;DHT22;2497;47.410;9.740;2023-01-30T19:40:32;2.20;99.90
4964;DHT22;2497;47.410;9.740;2023-01-30T19:43:01;2.20;99.90
4964;DHT22;2497;47.410;9.740;2023-01-30T19:45:30;2.30;99.90
4964;DHT22;2497;47.410;9.740;2023-01-30T19:47:58;2.30;99.90
4964;DHT22;2497;47.410;9.740;2023-01-30T19:50:25;2.30;99.90
4964;DHT22;2497;47.410;9.740;2023-01-30T19:52:55;2.20;99.90
4964;DHT22;2497;47.410;9.740;2023-01-30T19:55:23;2.20;99.90
4964;DHT22;2497;47.410;9.740;2023-01-30T19:57:52;2.30;99.90
4964;DHT22;2497;47.410;9.740;2023-01-30T20:00:20;2.30;99.90
4964;DHT22;2497;47.410;9.740;2023-01-30T20:02:49;2.30;99.90
4964;DHT22;2497;47.410;9.740;2023-01-30T20:05:17;2.30;99.90
4964;DHT22;2497;47.410;9.740;2023-01-30T20:07:46;2.30;99.90
4964;DHT22;2497;47.410;9.740;2023-01-30T20:10:17;2.20;99.90
4964;DHT22;2497;47.410;9.740;2023-01-30T20:12:45;2.10;99.90
4964;DHT22;2497;47.410;9.740;2023-01-30T20:15:13;2.10;99.90
4964;DHT22;2497;47.410;9.740;2023-01-30T20:17:41;2.10;99.90
4964;DHT22;2497;47.410;9.740;2023-01-30T20:20:12;2.10;99.90
4964;DHT22;2497;47.410;9.740;2023-01-30T20:22:40;2.20;99.90
4964;DHT22;2497;47.410;9.740;2023-01-30T20:25:09;2.20;99.90
4964;DHT22;2497;47.410;9.740;2023-01-30T20:27:40;2.20;99.90